普天間飛行場の過去48時間の天気

普天間飛行場 (Futema)

現在時刻: 10/16 15:50 JST (10/16 06:50 UTC) 以下の時間は現地時間です。

過去48時間のMETAR気象情報
時間 風向 風速(m/s) 視程 気温(℃) 湿度(%) 気圧(hPa) 天気現象
16 14:56 北西 5 10km以上 26.1 82 1009
16 13:56 北西 4 10km以上 25.6 81 1009.4
16 12:56 北西 4 10km以上 26.7 82 1009.8
16 11:56 3 10km以上 26.7 79 1010.2
16 10:56 不定 2 10km以上 26.1 82 1011.1
16 09:56 不定 2 10km以上 25 82 1011.5
16 08:56 不定 2 10km以上 25 82 1011.6
16 07:56 3 10km以上 23.3 97 1011.8
16 05:56 北北東 2 10km以上 22.8 100 1011
ROTM 160556Z 32010KT 9999 FEW020 SCT050 SCT120 26/23 A2984 RMK SLP090 STNPR29550 T02610228 10267 20250 58002
ROTM 160456Z 32008KT 9999 BKN020 BKN050 BKN120 26/22 A2985 RMK SLP094 STNPR29540 T02560233
ROTM 160356Z 32007KT 9999 SCT020 BKN050 BKN110 27/23 A2986 RMK SLP098 STNPR29560 T02670233
ROTM 160256Z VRB05KT 9999 SCT025 BKN050 BKN120 27/23 A2988 RMK SLP102 STNPR29580 T02670228 57012
ROTM 160156Z VRB03KT 9999 SCT020 BKN120 26/23 A2989 RMK SLP111 STNPR29590 T02610228
ROTM 160056Z VRB03KT 9999 SCT020 BKN120 25/22 A2991 RMK SLP115 STNPR29615 T02500217
ROTM 152356Z VRB03KT 9999 BKN050 BKN110 25/22 A2992 RMK SLP116 STNPR29620 T02500217 10250 20222 51003
ROTM 152256Z VRB06KT 9999 SCT037 BKN070 23/23 A2992 RMK SLP118 STNPR29620 T02330228
ROTM 152056Z 03003KT 9999 SCT038 BKN050 23/23 A2990 RMK SLP110 STNPR29600 60000 T02280228 52003